Time;durP1;ratioP1;P1;durP2;ratioP2;P2;SDS_P1;SDS_P2;PMS_P1;PMS_P2;Temp;Humidity;BMP_temperature;BMP_pressure;BME280_temperature;BME280_humidity;BME280_pressure;Samples;Min_cycle;Max_cycle;Signal;HPM_P1;HPM_P2
2021/12/23 00:00:13;;;;;;;4.65;1.90;;;;;;;7.23;100.00;99260.22;5021503;28;20049;-63
2021/12/23 00:03:17;;;;;;;11.30;2.40;;;;;;;7.06;100.00;99256.25;5010443;28;20504;-62
2021/12/23 00:06:20;;;;;;;7.95;2.33;;;;;;;7.21;100.00;99251.59;5011031;28;20060;-62
2021/12/23 00:09:33;;;;;;;5.85;2.20;;;;;;;7.19;100.00;99242.25;5010693;28;20125;-63
2021/12/23 00:12:39;;;;;;;19.50;4.55;;;;;;;7.13;100.00;99242.09;5010050;28;20060;-63
2021/12/23 00:19:05;;;;;;;3.55;3.00;;;;;;;7.38;100.00;99238.94;5006382;28;20125;-60
2021/12/23 00:25:47;;;;;;;11.15;1.73;;;;;;;7.27;100.00;99230.38;5007654;28;20154;-62
2021/12/23 00:28:51;;;;;;;7.07;2.40;;;;;;;7.21;100.00;99223.16;5011124;28;20060;-63
2021/12/23 00:31:55;;;;;;;7.60;2.50;;;;;;;7.23;100.00;99220.69;5009317;28;20065;-54
2021/12/23 00:34:58;;;;;;;15.60;2.22;;;;;;;7.22;100.00;99214.38;4998123;28;20516;-54
2021/12/23 00:38:10;;;;;;;5.07;2.08;;;;;;;7.19;100.00;99214.56;5010372;28;20065;-58
2021/12/23 00:41:14;;;;;;;8.95;3.92;;;;;;;7.19;100.00;99209.75;5010575;28;20528;-55
2021/12/23 00:44:18;;;;;;;11.25;2.25;;;;;;;7.19;100.00;99214.56;5019450;28;20135;-54
2021/12/23 00:47:21;;;;;;;14.02;2.08;;;;;;;7.22;100.00;99197.75;5014060;28;20057;-54
2021/12/23 00:50:24;;;;;;;13.85;2.53;;;;;;;7.19;100.00;99193.16;5020365;28;20064;-54
2021/12/23 00:53:35;;;;;;;3.78;1.58;;;;;;;7.13;100.00;99203.34;5026925;28;20060;-54
2021/12/23 00:56:39;;;;;;;7.20;2.90;;;;;;;7.20;100.00;99205.78;5009827;28;20056;-53
2021/12/23 00:59:42;;;;;;;2.47;2.28;;;;;;;7.20;100.00;99213.31;5010455;28;20056;-54
2021/12/23 01:02:47;;;;;;;8.25;2.22;;;;;;;7.35;100.00;99195.53;5010300;28;20060;-54
2021/12/23 01:05:50;;;;;;;13.63;3.17;;;;;;;7.20;100.00;99208.53;5010527;28;20069;-54
2021/12/23 01:08:54;;;;;;;6.93;2.25;;;;;;;7.42;100.00;99195.22;5010548;28;20057;-54
2021/12/23 01:11:58;;;;;;;8.77;2.72;;;;;;;7.51;100.00;99213.78;5010413;28;20065;-54
2021/12/23 01:15:39;;;;;;;17.33;4.10;;;;;;;7.28;100.00;99212.50;5010127;28;20417;-57
2021/12/23 01:18:44;;;;;;;7.25;2.40;;;;;;;7.26;100.00;99201.13;5009947;28;20069;-54
2021/12/23 01:21:47;;;;;;;8.57;2.08;;;;;;;7.28;100.00;99187.56;5009987;28;20060;-54
2021/12/23 01:24:51;;;;;;;3.70;2.42;;;;;;;7.29;100.00;99180.03;5010452;28;20064;-53
2021/12/23 01:27:55;;;;;;;16.48;2.80;;;;;;;7.26;100.00;99183.75;4993977;28;20073;-54
2021/12/23 01:30:58;;;;;;;9.52;1.42;;;;;;;7.29;100.00;99185.56;5012764;28;20057;-54
2021/12/23 01:34:03;;;;;;;8.88;2.90;;;;;;;7.32;100.00;99173.56;4997727;28;20052;-54
2021/12/23 01:37:06;;;;;;;6.70;2.25;;;;;;;7.34;100.00;99165.56;5013775;28;20076;-54
2021/12/23 01:40:12;;;;;;;6.15;2.55;;;;;;;7.29;100.00;99164.19;5013292;28;20057;-54
2021/12/23 01:43:17;;;;;;;16.67;3.25;;;;;;;7.27;100.00;99150.06;5013744;28;20061;-54
2021/12/23 01:46:22;;;;;;;3.92;1.77;;;;;;;7.25;100.00;99144.22;5013747;28;20076;-54
2021/12/23 01:49:25;;;;;;;6.15;2.30;;;;;;;7.25;100.00;99163.59;5013593;28;20061;-54
2021/12/23 01:52:29;;;;;;;7.90;2.65;;;;;;;7.33;100.00;99159.25;5013366;28;20061;-54
2021/12/23 01:55:35;;;;;;;3.30;1.50;;;;;;;7.47;100.00;99161.31;5012601;28;20061;-54
2021/12/23 01:58:41;;;;;;;6.10;2.70;;;;;;;7.42;100.00;99152.88;5013292;28;20413;-54
2021/12/23 02:01:45;;;;;;;34.28;5.13;;;;;;;7.39;100.00;99143.50;5012972;28;20053;-54
2021/12/23 02:04:49;;;;;;;7.70;2.38;;;;;;;7.42;100.00;99150.88;5013179;28;20493;-54
2021/12/23 02:07:52;;;;;;;9.25;2.72;;;;;;;7.39;100.00;99140.75;5012536;28;20061;-54
2021/12/23 02:10:57;;;;;;;7.25;2.67;;;;;;;7.38;100.00;99149.53;5012886;28;20061;-53
2021/12/23 02:14:00;;;;;;;1.55;1.38;;;;;;;7.41;100.00;99138.25;5013013;28;20057;-54
2021/12/23 02:17:04;;;;;;;12.63;2.55;;;;;;;7.45;100.00;99138.09;5012808;28;20126;-54
2021/12/23 02:20:35;;;;;;;4.93;3.03;;;;;;;7.44;100.00;99126.25;4999862;28;20508;-54
2021/12/23 02:23:39;;;;;;;14.47;2.80;;;;;;;7.43;100.00;99124.69;5012437;28;20126;-54
2021/12/23 02:26:42;;;;;;;6.35;1.40;;;;;;;7.43;100.00;99113.63;5012760;28;20099;-54
2021/12/23 02:29:46;;;;;;;6.03;2.75;;;;;;;7.43;100.00;99107.31;5012127;28;20061;-54
2021/12/23 02:32:50;;;;;;;7.68;2.05;;;;;;;7.42;100.00;99109.34;5000785;28;20069;-54
2021/12/23 02:35:56;;;;;;;4.85;1.63;;;;;;;7.46;100.00;99096.06;5012545;28;20064;-55
2021/12/23 02:39:01;;;;;;;6.75;2.65;;;;;;;7.40;100.00;99095.19;5001837;28;20048;-54
2021/12/23 02:42:05;;;;;;;6.85;3.20;;;;;;;7.45;100.00;99099.31;5009516;28;20061;-54
2021/12/23 02:45:09;;;;;;;20.83;2.63;;;;;;;7.43;100.00;99099.00;5021759;28;20064;-55
2021/12/23 02:48:13;;;;;;;9.57;2.00;;;;;;;7.43;100.00;99099.00;5013586;28;20057;-54
2021/12/23 02:51:17;;;;;;;20.05;3.75;;;;;;;7.44;100.00;99092.22;5012504;28;20060;-54
2021/12/23 02:54:20;;;;;;;13.38;3.85;;;;;;;7.49;100.00;99095.09;5011839;28;20053;-54
2021/12/23 02:57:24;;;;;;;9.32;3.28;;;;;;;7.55;100.00;99093.25;5012130;28;20057;-54
2021/12/23 03:00:29;;;;;;;4.63;2.28;;;;;;;7.53;100.00;99092.19;5011922;28;20405;-54
2021/12/23 03:03:33;;;;;;;10.80;2.92;;;;;;;7.56;100.00;99089.22;5011063;28;20064;-55
2021/12/23 03:06:36;;;;;;;18.35;3.67;;;;;;;7.56;100.00;99080.13;5011896;28;20409;-54
2021/12/23 03:09:40;;;;;;;11.57;2.40;;;;;;;7.55;100.00;99076.63;5011821;28;20126;-54
2021/12/23 03:12:43;;;;;;;9.10;4.22;;;;;;;7.53;100.00;99068.00;5011580;28;20061;-54
2021/12/23 03:15:47;;;;;;;14.73;2.03;;;;;;;7.58;100.00;99081.19;5011690;28;20644;-54
2021/12/23 03:18:51;;;;;;;7.32;3.47;;;;;;;7.52;100.00;99083.09;5011583;28;20060;-54
2021/12/23 03:21:55;;;;;;;19.83;3.67;;;;;;;7.60;100.00;99081.47;5011538;28;20084;-54
2021/12/23 03:24:58;;;;;;;20.92;2.65;;;;;;;7.55;100.00;99079.38;5017922;28;20408;-54
2021/12/23 03:28:02;;;;;;;6.35;2.25;;;;;;;7.51;100.00;99076.00;5016623;28;20061;-55
2021/12/23 03:31:05;;;;;;;13.75;3.70;;;;;;;7.46;100.00;99079.44;5010941;28;20524;-55
2021/12/23 03:34:09;;;;;;;8.85;3.35;;;;;;;7.47;100.00;99069.88;5012082;28;20053;-55
2021/12/23 03:37:12;;;;;;;11.60;3.42;;;;;;;7.46;100.00;99073.91;5015312;28;20516;-54
2021/12/23 03:40:15;;;;;;;14.10;3.53;;;;;;;7.48;100.00;99071.44;5014289;28;20080;-54
2021/12/23 03:43:19;;;;;;;9.70;3.50;;;;;;;7.45;100.00;99069.59;5007482;28;20052;-53
2021/12/23 03:46:23;;;;;;;17.83;3.33;;;;;;;7.44;100.00;99065.31;5029959;28;20595;-55
2021/12/23 03:49:27;;;;;;;8.77;2.50;;;;;;;7.51;100.00;99058.63;4999191;28;20437;-54
2021/12/23 03:52:30;;;;;;;5.90;2.40;;;;;;;7.51;100.00;99053.09;5010257;28;20053;-56
2021/12/23 03:55:34;;;;;;;6.40;2.75;;;;;;;7.47;100.00;99035.91;5011070;28;20061;-54
2021/12/23 03:58:37;;;;;;;14.73;2.65;;;;;;;7.49;100.00;99034.16;5011378;28;20057;-55
2021/12/23 04:01:41;;;;;;;11.98;2.55;;;;;;;7.47;100.00;99033.13;5011138;28;20065;-53
2021/12/23 04:04:45;;;;;;;6.82;1.95;;;;;;;7.52;100.00;99038.00;5011617;28;20060;-54
2021/12/23 04:07:49;;;;;;;6.38;2.83;;;;;;;7.54;100.00;99030.75;5010649;28;20061;-55
2021/12/23 04:10:52;;;;;;;2.83;1.90;;;;;;;7.59;100.00;99032.88;5010896;28;20423;-54
2021/12/23 04:13:55;;;;;;;8.18;2.42;;;;;;;7.53;100.00;99023.69;5010751;28;20065;-54
2021/12/23 04:16:59;;;;;;;22.63;4.18;;;;;;;7.56;100.00;99013.63;5011034;28;20401;-54
2021/12/23 04:20:22;;;;;;;1.65;1.55;;;;;;;7.56;100.00;99017.19;5010002;28;20056;-54
2021/12/23 04:23:31;;;;;;;7.70;2.42;;;;;;;7.54;100.00;99013.34;5011028;28;20133;-54
2021/12/23 04:26:36;;;;;;;12.38;3.70;;;;;;;7.58;100.00;99008.38;5010353;28;20065;-54
2021/12/23 04:29:40;;;;;;;14.43;2.83;;;;;;;7.60;100.00;99003.91;5010653;28;20065;-54
2021/12/23 04:32:44;;;;;;;10.35;1.52;;;;;;;7.52;100.00;98999.22;4996376;28;20061;-54
2021/12/23 04:35:48;;;;;;;12.25;2.30;;;;;;;7.46;100.00;98999.13;5010656;28;20524;-54
2021/12/23 04:38:51;;;;;;;8.88;2.00;;;;;;;7.52;100.00;99007.53;4997074;28;20409;-54
2021/12/23 04:41:55;;;;;;;21.83;4.53;;;;;;;7.56;100.00;99005.31;5010455;28;20065;-54
2021/12/23 04:44:58;;;;;;;13.27;2.58;;;;;;;7.59;100.00;99005.16;5010228;28;20517;-54
2021/12/23 04:48:02;;;;;;;11.68;4.07;;;;;;;7.60;100.00;98995.59;5010971;28;20104;-54
2021/12/23 04:51:06;;;;;;;17.08;3.60;;;;;;;7.66;100.00;98981.84;5010207;28;20528;-54
2021/12/23 04:54:09;;;;;;;15.65;3.40;;;;;;;7.63;100.00;98972.47;5010880;28;20060;-53
2021/12/23 04:57:13;;;;;;;18.50;4.30;;;;;;;7.61;100.00;98971.41;5010387;28;20417;-54
2021/12/23 05:00:20;;;;;;;12.18;2.88;;;;;;;7.65;100.00;98967.22;4998464;28;20393;-54
2021/12/23 05:03:25;;;;;;;12.00;3.15;;;;;;;7.64;100.00;98962.16;4999887;28;20409;-54
2021/12/23 05:06:29;;;;;;;22.40;3.95;;;;;;;7.60;100.00;98944.97;5013843;28;20057;-54
2021/12/23 05:09:32;;;;;;;5.70;2.75;;;;;;;7.60;100.00;98951.25;5001427;28;20060;-54
2021/12/23 05:12:42;;;;;;;5.57;3.40;;;;;;;7.61;100.00;98955.56;5014171;28;20061;-54
2021/12/23 05:15:46;;;;;;;4.68;2.30;;;;;;;7.61;100.00;98946.47;5013829;28;20057;-54
2021/12/23 05:18:49;;;;;;;7.53;2.42;;;;;;;7.65;100.00;98958.91;5024570;28;20405;-54
2021/12/23 05:21:53;;;;;;;11.60;3.63;;;;;;;7.65;100.00;98956.13;5014014;28;20061;-54
2021/12/23 05:24:57;;;;;;;17.58;5.68;;;;;;;7.62;100.00;98954.31;5013993;28;20512;-54
2021/12/23 05:28:01;;;;;;;21.60;3.38;;;;;;;7.59;100.00;98948.97;5014046;28;20417;-54
2021/12/23 05:31:05;;;;;;;10.70;2.35;;;;;;;7.61;100.00;98947.25;5013883;28;20065;-54
2021/12/23 05:34:09;;;;;;;14.18;3.05;;;;;;;7.56;100.00;98936.06;5013346;28;20057;-54
2021/12/23 05:37:12;;;;;;;19.27;4.25;;;;;;;7.61;100.00;98938.94;5013148;28;20061;-54
2021/12/23 05:40:18;;;;;;;17.75;3.35;;;;;;;7.78;100.00;98932.91;5013611;28;20065;-54
2021/12/23 05:43:21;;;;;;;4.03;2.65;;;;;;;7.90;100.00;98940.19;5000547;28;20049;-54
2021/12/23 05:46:25;;;;;;;5.43;2.80;;;;;;;8.11;100.00;98939.00;5013519;28;20065;-54
2021/12/23 05:49:29;;;;;;;10.05;2.78;;;;;;;8.18;100.00;98928.28;5001694;28;20574;-54
2021/12/23 05:52:32;;;;;;;18.13;2.78;;;;;;;8.32;100.00;98902.53;5013885;28;20511;-54
2021/12/23 05:55:36;;;;;;;8.82;2.08;;;;;;;8.32;100.00;98904.53;5024509;28;20056;-54
2021/12/23 05:58:39;;;;;;;12.38;4.95;;;;;;;8.11;100.00;98894.63;5013748;28;20542;-54
2021/12/23 06:01:43;;;;;;;4.22;2.40;;;;;;;8.07;100.00;98888.53;5013082;28;20057;-54
2021/12/23 06:04:46;;;;;;;5.50;2.20;;;;;;;7.95;100.00;98915.31;5014176;28;20057;-53
2021/12/23 06:07:50;;;;;;;17.30;3.88;;;;;;;7.93;100.00;98897.63;5032750;28;20072;-54
2021/12/23 06:10:54;;;;;;;5.10;1.67;;;;;;;7.89;100.00;98888.75;5015033;28;21023;-54
2021/12/23 06:13:57;;;;;;;4.13;2.40;;;;;;;7.88;100.00;98890.00;5012719;28;20061;-54
2021/12/23 06:17:02;;;;;;;8.23;2.53;;;;;;;7.87;100.00;98902.31;5012610;28;20414;-54
2021/12/23 06:20:07;;;;;;;9.15;2.83;;;;;;;7.93;100.00;98911.47;5012601;28;20060;-54
2021/12/23 06:23:11;;;;;;;8.73;2.95;;;;;;;7.87;100.00;98894.00;5013193;28;20053;-59
2021/12/23 06:26:14;;;;;;;12.27;3.47;;;;;;;7.90;100.00;98898.59;5013294;28;20064;-57
2021/12/23 06:29:17;;;;;;;14.23;4.35;;;;;;;7.96;100.00;98880.03;5001117;28;20053;-54
2021/12/23 06:32:21;;;;;;;14.82;3.35;;;;;;;7.93;100.00;98880.97;5019992;28;20548;-54
2021/12/23 06:35:30;;;;;;;21.02;3.70;;;;;;;7.86;100.00;98876.59;5015621;28;20056;-54
2021/12/23 06:38:35;;;;;;;14.77;3.17;;;;;;;7.93;100.00;98889.31;5012312;28;20060;-54
2021/12/23 06:41:39;;;;;;;19.05;3.40;;;;;;;7.84;100.00;98883.91;5012706;28;20057;-54
2021/12/23 06:44:42;;;;;;;12.30;3.35;;;;;;;7.89;100.00;98891.50;5012864;28;20053;-54
2021/12/23 06:47:46;;;;;;;14.82;2.80;;;;;;;7.87;100.00;98886.47;4999726;28;20532;-54
2021/12/23 06:50:54;;;;;;;8.00;2.67;;;;;;;7.91;100.00;98881.47;5012132;28;20072;-54
2021/12/23 06:53:59;;;;;;;12.35;3.58;;;;;;;7.98;100.00;98880.31;5000660;28;20057;-54
2021/12/23 06:57:03;;;;;;;8.70;3.58;;;;;;;7.93;100.00;98873.44;5012192;28;20049;-54
2021/12/23 07:00:10;;;;;;;20.23;4.90;;;;;;;7.96;100.00;98861.41;5012009;28;20366;-54
2021/12/23 07:03:14;;;;;;;17.05;3.47;;;;;;;8.00;100.00;98866.72;5011780;28;20060;-54
2021/12/23 07:06:22;;;;;;;15.80;3.58;;;;;;;8.01;100.00;98868.28;5012109;28;20061;-54
2021/12/23 07:09:25;;;;;;;13.65;3.90;;;;;;;8.08;100.00;98867.84;5011558;28;20068;-54
2021/12/23 07:12:29;;;;;;;10.68;4.40;;;;;;;8.16;100.00;98864.22;5011912;28;20374;-54
2021/12/23 07:15:33;;;;;;;9.55;3.42;;;;;;;8.12;100.00;98860.13;5010024;28;20069;-54
2021/12/23 07:18:36;;;;;;;14.30;2.47;;;;;;;8.08;100.00;98848.44;5011852;28;20060;-55
2021/12/23 07:21:40;;;;;;;6.18;2.53;;;;;;;8.11;100.00;98853.03;5011773;28;20428;-54
2021/12/23 07:24:43;;;;;;;3.13;2.33;;;;;;;8.08;100.00;98834.56;5011821;28;20073;-54
2021/12/23 07:27:47;;;;;;;16.10;2.70;;;;;;;8.09;100.00;98827.81;5011349;28;20060;-54
2021/12/23 07:30:51;;;;;;;13.88;3.67;;;;;;;8.06;100.00;98832.28;5011798;28;20061;-54
2021/12/23 07:33:54;;;;;;;20.88;5.45;;;;;;;8.22;100.00;98822.69;4997504;28;20060;-54
2021/12/23 07:36:58;;;;;;;20.73;1.88;;;;;;;8.24;100.00;98831.28;5011613;28;20062;-54
2021/12/23 07:40:05;;;;;;;13.02;2.75;;;;;;;8.29;100.00;98833.41;5011107;28;20049;-54
2021/12/23 07:46:35;;;;;;;6.95;2.33;;;;;;;8.30;100.00;98821.81;4995548;28;20064;-55
2021/12/23 07:49:39;;;;;;;4.60;2.88;;;;;;;8.30;100.00;98840.47;5010999;28;20057;-54
2021/12/23 07:52:43;;;;;;;14.30;2.80;;;;;;;8.32;100.00;98826.88;5011427;28;20057;-54
2021/12/23 07:55:46;;;;;;;21.05;4.18;;;;;;;8.35;100.00;98832.22;5010796;28;20056;-54
2021/12/23 07:58:51;;;;;;;11.25;2.42;;;;;;;8.33;100.00;98839.50;5010856;28;20077;-54
2021/12/23 08:01:57;;;;;;;11.60;3.33;;;;;;;8.28;100.00;98826.31;5010935;28;20069;-54
2021/12/23 08:05:01;;;;;;;16.63;2.47;;;;;;;8.21;100.00;98829.47;5010641;28;20061;-54
2021/12/23 08:08:04;;;;;;;7.07;2.35;;;;;;;8.22;100.00;98834.53;5010956;28;20077;-54
2021/12/23 08:11:08;;;;;;;14.75;2.50;;;;;;;8.26;100.00;98839.91;5010702;28;20057;-54
2021/12/23 08:14:11;;;;;;;12.80;3.50;;;;;;;8.24;100.00;98834.06;4996732;28;20061;-54
2021/12/23 08:17:15;;;;;;;13.27;3.65;;;;;;;8.24;100.00;98831.28;5005558;28;20064;-54
2021/12/23 08:20:18;;;;;;;5.60;2.85;;;;;;;8.25;100.00;98841.13;5010736;28;20413;-54
2021/12/23 08:23:22;;;;;;;15.48;2.90;;;;;;;8.27;100.00;98841.44;5009615;28;20068;-54
2021/12/23 08:26:29;;;;;;;23.83;3.88;;;;;;;8.32;100.00;98846.28;4997488;28;20069;-54
2021/12/23 08:29:32;;;;;;;4.95;2.25;;;;;;;8.31;100.00;98833.69;5010152;28;20060;-54
2021/12/23 08:32:37;;;;;;;6.00;2.83;;;;;;;8.34;100.00;98825.13;5018354;28;20060;-64
2021/12/23 08:35:40;;;;;;;21.23;2.63;;;;;;;8.38;100.00;98813.84;5011809;28;20053;-64
2021/12/23 08:38:44;;;;;;;6.00;2.88;;;;;;;8.38;100.00;98805.53;5011984;28;20050;-54
2021/12/23 08:41:48;;;;;;;6.55;1.95;;;;;;;8.43;100.00;98804.81;5012808;28;20057;-54
2021/12/23 08:44:51;;;;;;;12.90;2.42;;;;;;;8.45;100.00;98784.91;5014325;28;20056;-64
2021/12/23 08:47:56;;;;;;;6.30;2.03;;;;;;;8.42;100.00;98792.22;5013844;28;20145;-64
2021/12/23 08:50:59;;;;;;;10.02;3.80;;;;;;;8.45;100.00;98799.53;5014391;28;20065;-63
2021/12/23 08:54:04;;;;;;;22.73;1.70;;;;;;;8.44;100.00;98795.25;5014483;28;20425;-63
2021/12/23 08:57:08;;;;;;;15.05;3.80;;;;;;;8.49;100.00;98791.75;5013890;28;20536;-64
2021/12/23 09:00:16;;;;;;;14.05;3.30;;;;;;;8.50;100.00;98787.75;5014118;28;20052;-64
2021/12/23 09:03:19;;;;;;;8.43;3.78;;;;;;;8.57;100.00;98787.34;5014055;28;20065;-63
2021/12/23 09:06:22;;;;;;;9.13;2.88;;;;;;;8.56;100.00;98794.13;5014339;28;20069;-64
2021/12/23 09:09:30;;;;;;;25.90;6.72;;;;;;;8.57;100.00;98790.09;5014208;28;20057;-64
2021/12/23 09:12:33;;;;;;;14.25;4.40;;;;;;;8.52;100.00;98790.81;4999515;28;20056;-63
2021/12/23 09:15:37;;;;;;;12.68;5.07;;;;;;;8.54;100.00;98787.53;5014382;28;20061;-64
2021/12/23 09:18:40;;;;;;;8.23;4.47;;;;;;;8.63;100.00;98790.94;5013953;28;20517;-63
2021/12/23 09:21:44;;;;;;;7.93;3.35;;;;;;;8.69;100.00;98788.97;5013717;28;20414;-64
2021/12/23 09:24:48;;;;;;;19.80;3.72;;;;;;;8.84;100.00;98791.63;5001673;28;20060;-65
2021/12/23 09:34:22;;;;;;;10.32;4.00;;;;;;;8.95;100.00;98788.97;5033363;28;20060;-54
2021/12/23 09:37:26;;;;;;;19.13;3.30;;;;;;;8.92;100.00;98779.59;5020461;28;20065;-59
2021/12/23 09:40:32;;;;;;;12.60;3.85;;;;;;;8.94;100.00;98784.69;5013440;28;20061;-55
2021/12/23 09:43:36;;;;;;;8.38;1.73;;;;;;;8.95;100.00;98788.97;5012531;28;20061;-54
2021/12/23 09:46:40;;;;;;;12.77;3.22;;;;;;;8.92;100.00;98785.16;5013264;28;20064;-55
2021/12/23 09:49:45;;;;;;;6.68;2.30;;;;;;;8.91;100.00;98782.88;5000973;28;20413;-54
2021/12/23 09:52:52;;;;;;;9.90;1.95;;;;;;;8.88;100.00;98790.16;4999779;28;20073;-54
2021/12/23 09:55:56;;;;;;;4.88;1.42;;;;;;;8.93;100.00;98792.25;5013284;28;20072;-54
2021/12/23 09:59:06;;;;;;;13.43;2.42;;;;;;;8.93;100.00;98803.34;5013462;28;20061;-54
2021/12/23 10:02:10;;;;;;;12.18;2.45;;;;;;;8.91;100.00;98796.75;5012580;28;20061;-54
2021/12/23 10:05:17;;;;;;;10.00;2.55;;;;;;;8.98;100.00;98788.78;5013321;28;20053;-54
2021/12/23 10:08:20;;;;;;;15.80;5.72;;;;;;;9.05;100.00;98791.09;5010465;28;20065;-54
2021/12/23 10:11:41;;;;;;;6.90;2.03;;;;;;;9.03;100.00;98790.81;5000716;28;20520;-54
2021/12/23 10:30:11;;;;;;;20.10;2.28;;;;;;;9.37;100.00;98780.78;5012819;28;19921;-55
2021/12/23 10:32:00;;;;;;;6.78;2.55;;;;;;;9.10;100.00;98779.28;5012144;28;20061;-55
2021/12/23 10:38:58;;;;;;;9.35;1.58;;;;;;;8.90;100.00;98782.13;5011220;28;20085;-55
2021/12/23 10:42:14;;;;;;;18.00;3.42;;;;;;;8.93;100.00;98770.03;5012857;28;20057;-54
2021/12/23 10:45:17;;;;;;;12.75;2.45;;;;;;;9.03;100.00;98776.94;5012143;28;20061;-54
2021/12/23 10:48:27;;;;;;;3.83;1.55;;;;;;;9.09;100.00;98775.00;5012492;28;20068;-55
2021/12/23 10:51:56;;;;;;;13.90;2.90;;;;;;;9.11;100.00;98768.94;5011434;28;20049;-55
2021/12/23 10:58:14;;;;;;;10.32;3.67;;;;;;;9.18;100.00;98767.72;5012012;28;20060;-53
2021/12/23 11:01:18;;;;;;;12.13;2.28;;;;;;;9.12;100.00;98760.09;5011943;28;20060;-54
2021/12/23 11:04:21;;;;;;;7.97;1.40;;;;;;;9.15;100.00;98759.13;5011652;28;20052;-56
2021/12/23 11:07:38;;;;;;;14.88;2.03;;;;;;;9.12;100.00;98754.56;5011781;28;20064;-54
2021/12/23 11:27:31;;;;;;;4.22;1.45;;;;;;;9.14;100.00;98746.50;4997185;28;20393;-54
2021/12/23 11:27:58;;;;;;;5.63;1.92;;;;;;;9.26;100.00;98729.91;5011215;28;20065;-54
2021/12/23 11:37:52;;;;;;;6.55;1.83;;;;;;;9.57;100.00;98724.31;4999028;28;20073;-54
2021/12/23 11:41:03;;;;;;;3.83;1.10;;;;;;;9.33;100.00;98718.34;5010619;28;20061;-55
2021/12/23 11:44:07;;;;;;;12.88;2.65;;;;;;;9.24;100.00;98721.31;5011269;28;20524;-54
2021/12/23 11:47:14;;;;;;;6.47;2.13;;;;;;;9.18;100.00;98712.94;5029904;28;20416;-54
2021/12/23 11:50:29;;;;;;;2.70;1.77;;;;;;;9.29;100.00;98712.25;5025022;28;20060;-54
2021/12/23 11:53:36;;;;;;;15.18;3.33;;;;;;;9.34;100.00;98708.75;4996225;28;20065;-55
2021/12/23 11:57:03;;;;;;;18.70;2.95;;;;;;;9.31;100.00;98707.75;5011278;28;20061;-54
2021/12/23 12:00:17;;;;;;;16.63;2.50;;;;;;;9.49;100.00;98709.34;5006249;28;20516;-54
2021/12/23 12:03:20;;;;;;;8.65;1.63;;;;;;;9.75;100.00;98713.56;5013153;28;20108;-54
2021/12/23 12:06:51;;;;;;;11.80;2.13;;;;;;;9.87;100.00;98708.81;5019145;28;20057;-54
2021/12/23 12:10:03;;;;;;;8.05;2.28;;;;;;;9.97;100.00;98701.00;4998132;28;20065;-54
2021/12/23 12:13:08;;;;;;;7.20;2.17;;;;;;;9.80;100.00;98698.16;4998320;28;20052;-54
2021/12/23 12:16:31;;;;;;;14.18;3.30;;;;;;;9.72;100.00;98702.69;5013504;28;20053;-54
2021/12/23 12:19:58;;;;;;;8.73;1.80;;;;;;;9.71;100.00;98703.94;4995369;28;20053;-55
2021/12/23 12:23:03;;;;;;;3.78;2.00;;;;;;;9.72;100.00;98700.63;5010773;28;20053;-54
2021/12/23 12:26:12;;;;;;;6.40;4.03;;;;;;;9.73;100.00;98699.41;5010844;28;20846;-54
2021/12/23 12:29:20;;;;;;;4.10;1.42;;;;;;;9.77;100.00;98696.38;5008557;28;20065;-54
2021/12/23 12:32:34;;;;;;;3.55;2.00;;;;;;;9.68;100.00;98682.69;5010344;28;20066;-55
2021/12/23 12:35:41;;;;;;;4.55;1.33;;;;;;;9.68;100.00;98682.69;5011461;28;20053;-55
2021/12/23 12:38:55;;;;;;;17.40;1.60;;;;;;;9.73;100.00;98679.16;5009394;28;20057;-54
2021/12/23 12:42:03;;;;;;;12.90;3.55;;;;;;;9.79;100.00;98666.03;5021130;28;20129;-54
2021/12/23 12:45:14;;;;;;;10.38;1.67;;;;;;;9.78;100.00;98665.31;4994545;28;20049;-55
2021/12/23 12:48:18;;;;;;;14.05;2.17;;;;;;;9.79;100.00;98666.03;5023428;28;20515;-54
2021/12/23 12:51:27;;;;;;;6.00;2.25;;;;;;;9.75;100.00;98671.09;5004972;28;20052;-54
2021/12/23 12:54:32;;;;;;;23.95;3.60;;;;;;;9.85;100.00;98664.81;5009698;28;20386;-55
2021/12/23 12:57:41;;;;;;;7.63;2.03;;;;;;;9.82;100.00;98653.94;5010495;28;20501;-55
2021/12/23 13:00:50;;;;;;;14.05;2.72;;;;;;;9.77;100.00;98651.88;5009999;28;20498;-55
2021/12/23 13:03:53;;;;;;;2.53;1.10;;;;;;;9.82;100.00;98634.47;4999803;28;20061;-55
2021/12/23 13:07:11;;;;;;;5.45;1.88;;;;;;;9.91;100.00;98617.56;5009152;28;20061;-55
2021/12/23 13:10:20;;;;;;;14.85;1.70;;;;;;;9.92;100.00;98619.09;5010403;28;20080;-55
2021/12/23 13:13:35;;;;;;;9.65;1.50;;;;;;;9.92;100.00;98614.28;4993385;28;20413;-55
2021/12/23 13:16:55;;;;;;;9.85;2.15;;;;;;;9.98;100.00;98622.66;5009792;28;20065;-55
2021/12/23 13:20:03;;;;;;;5.72;1.33;;;;;;;10.01;100.00;98616.06;4999369;28;20064;-59
2021/12/23 13:23:12;;;;;;;14.45;2.75;;;;;;;10.08;100.00;98625.97;5009580;28;20409;-54
2021/12/23 13:26:18;;;;;;;5.88;2.83;;;;;;;10.12;100.00;98627.25;5021906;28;20423;-53
2021/12/23 13:29:29;;;;;;;4.30;1.67;;;;;;;10.05;100.00;98619.38;5000714;28;20064;-53
2021/12/23 13:32:33;;;;;;;2.57;1.73;;;;;;;10.07;100.00;98614.06;5012840;28;20520;-54
2021/12/23 13:35:36;;;;;;;4.32;1.92;;;;;;;10.05;100.00;98622.16;5013130;28;20552;-53
2021/12/23 13:38:41;;;;;;;5.82;2.05;;;;;;;10.18;100.00;98618.94;5012352;28;20052;-53
2021/12/23 13:41:49;;;;;;;5.00;0.93;;;;;;;10.15;100.00;98611.59;5013126;28;20064;-54
2021/12/23 13:44:55;;;;;;;6.97;1.90;;;;;;;10.10;100.00;98613.06;5013651;28;20068;-53
2021/12/23 13:47:59;;;;;;;3.33;0.88;;;;;;;10.21;100.00;98607.56;5012203;28;20068;-53
2021/12/23 13:51:03;;;;;;;3.38;1.27;;;;;;;10.20;100.00;98603.25;5013507;28;20406;-53
2021/12/23 13:54:11;;;;;;;1.63;1.40;;;;;;;10.22;100.00;98592.38;5000919;28;20125;-53
2021/12/23 13:57:19;;;;;;;12.65;2.63;;;;;;;10.29;100.00;98603.00;5012630;28;20064;-53
2021/12/23 14:00:29;;;;;;;7.72;2.60;;;;;;;10.29;100.00;98589.09;5016522;28;20052;-53
2021/12/23 14:03:33;;;;;;;3.35;2.17;;;;;;;10.31;100.00;98578.22;5028462;28;20548;-54
2021/12/23 14:06:38;;;;;;;9.70;1.63;;;;;;;10.31;100.00;98569.13;5012827;28;20050;-54
2021/12/23 14:09:48;;;;;;;3.78;1.95;;;;;;;10.31;100.00;98566.34;4996968;28;20065;-54
2021/12/23 14:12:55;;;;;;;3.90;1.58;;;;;;;10.31;100.00;98567.09;5012816;28;20060;-53
2021/12/23 14:15:59;;;;;;;10.55;1.25;;;;;;;10.40;100.00;98569.63;5012027;28;20061;-53
2021/12/23 14:19:21;;;;;;;32.35;3.92;;;;;;;10.47;100.00;98569.13;5012605;28;20053;-53
2021/12/23 14:25:49;;;;;;;8.98;3.47;;;;;;;10.55;100.00;98581.28;5011614;28;20057;-53
2021/12/23 14:29:08;;;;;;;5.18;1.98;;;;;;;10.59;100.00;98576.22;5013042;28;20072;-53
2021/12/23 14:32:14;;;;;;;12.80;2.25;;;;;;;10.64;100.00;98569.88;5000254;28;20061;-53
2021/12/23 14:35:27;;;;;;;7.22;2.20;;;;;;;10.69;100.00;98576.72;5028220;28;20056;-52
2021/12/23 14:38:43;;;;;;;9.10;2.63;;;;;;;10.69;100.00;98579.50;4989951;28;20053;-54
2021/12/23 14:41:49;;;;;;;3.72;1.15;;;;;;;10.79;100.00;98560.50;5011448;28;20048;-53
2021/12/23 14:45:01;;;;;;;6.55;1.27;;;;;;;10.83;100.00;98556.19;5012261;28;20056;-53
2021/12/23 14:48:13;;;;;;;4.53;1.33;;;;;;;10.87;100.00;98567.09;4998258;28;20065;-53
2021/12/23 14:51:24;;;;;;;14.63;1.73;;;;;;;10.81;100.00;98578.22;5012163;28;20061;-53
2021/12/23 14:54:27;;;;;;;14.75;1.73;;;;;;;10.80;100.00;98573.16;5000799;28;20068;-53
2021/12/23 14:57:37;;;;;;;9.95;3.47;;;;;;;10.90;100.00;98572.38;5011245;28;20071;-53
2021/12/23 15:00:44;;;;;;;2.45;1.77;;;;;;;10.95;100.00;98566.06;4999801;28;20065;-53
2021/12/23 15:03:47;;;;;;;9.98;2.95;;;;;;;10.91;100.00;98567.59;5012015;28;20126;-52
2021/12/23 15:07:11;;;;;;;12.85;3.10;;;;;;;10.95;100.00;98573.66;5012156;28;20064;-53
2021/12/23 15:10:30;;;;;;;12.98;2.38;;;;;;;10.86;100.00;98571.91;5017395;28;20061;-53
2021/12/23 15:13:36;;;;;;;17.95;3.17;;;;;;;10.87;100.00;98583.81;5015192;28;20065;-53
2021/12/23 15:16:39;;;;;;;7.38;2.17;;;;;;;10.89;100.00;98576.47;5001452;28;20397;-53
2021/12/23 15:19:49;;;;;;;19.13;3.80;;;;;;;10.87;100.00;98578.22;5011399;28;20076;-52
2021/12/23 15:22:54;;;;;;;13.77;3.47;;;;;;;10.84;100.00;98574.44;5011649;28;20053;-53
2021/12/23 15:25:57;;;;;;;13.85;3.15;;;;;;;10.88;100.00;98574.16;5011493;28;20469;-53
2021/12/23 15:29:18;;;;;;;25.00;4.15;;;;;;;10.93;100.00;98573.41;5011867;28;20497;-53
2021/12/23 15:32:28;;;;;;;14.37;3.03;;;;;;;10.92;100.00;98575.41;4997218;28;20053;-53